createdAt,value
2019-02-26T00:02:14.837Z,91.40
2019-02-26T00:04:49.116Z,91.40
2019-02-26T00:07:23.433Z,91.20
2019-02-26T00:09:55.034Z,91.30
2019-02-26T00:12:26.363Z,91.60
2019-02-26T00:15:00.226Z,91.80
2019-02-26T00:17:36.250Z,91.90
2019-02-26T00:20:10.930Z,92.00
2019-02-26T00:22:42.143Z,91.90
2019-02-26T00:25:15.309Z,92.10
2019-02-26T00:27:47.677Z,92.10
2019-02-26T00:30:19.963Z,92.10
2019-02-26T00:32:53.119Z,92.20
2019-02-26T00:35:25.252Z,92.20
2019-02-26T00:37:57.333Z,92.50
2019-02-26T00:40:28.847Z,92.40
2019-02-26T00:43:02.041Z,92.60
2019-02-26T00:45:34.152Z,92.80
2019-02-26T00:48:06.339Z,92.80
2019-02-26T00:50:39.658Z,92.90
2019-02-26T00:53:10.654Z,92.90
2019-02-26T00:55:43.040Z,93.00
2019-02-26T00:58:14.341Z,92.90
2019-02-26T01:00:45.806Z,92.60
2019-02-26T01:03:17.103Z,92.80
2019-02-26T01:05:48.416Z,93.00
2019-02-26T01:08:19.971Z,93.20
2019-02-26T01:10:59.247Z,93.70
2019-02-26T01:13:32.278Z,93.50
2019-02-26T01:16:03.689Z,93.60
2019-02-26T01:18:36.618Z,93.90
2019-02-26T01:21:08.042Z,94.10
2019-02-26T01:23:39.286Z,94.00
2019-02-26T01:26:12.221Z,93.90
2019-02-26T01:28:46.113Z,94.00
2019-02-26T01:31:16.758Z,94.00
2019-02-26T01:33:48.607Z,94.00
2019-02-26T01:36:23.193Z,93.90
2019-02-26T01:38:54.343Z,94.00
2019-02-26T01:41:27.292Z,94.70
2019-02-26T01:43:58.677Z,94.70
2019-02-26T01:46:30.486Z,94.60
2019-02-26T01:49:04.312Z,94.90
2019-02-26T01:51:35.786Z,95.00
2019-02-26T01:54:08.181Z,94.80
2019-02-26T01:56:40.115Z,95.10
2019-02-26T01:59:12.548Z,95.10
2019-02-26T02:01:44.704Z,95.10
2019-02-26T02:04:19.597Z,95.30
2019-02-26T02:06:51.011Z,95.40
2019-02-26T02:09:25.034Z,95.40
2019-02-26T02:11:57.399Z,95.30
2019-02-26T02:14:29.658Z,95.70
2019-02-26T02:17:03.278Z,95.50
2019-02-26T02:19:34.208Z,95.60
2019-02-26T02:22:06.720Z,95.70
2019-02-26T02:24:39.243Z,95.70
2019-02-26T02:27:12.625Z,95.70
2019-02-26T02:29:46.097Z,95.60
2019-02-26T02:32:17.295Z,95.60
2019-02-26T02:34:48.565Z,95.60
2019-02-26T02:37:24.079Z,95.90
2019-02-26T02:39:53.035Z,95.80
2019-02-26T02:42:24.431Z,95.50
2019-02-26T02:44:55.682Z,95.60
2019-02-26T02:47:29.909Z,95.70
2019-02-26T02:50:00.033Z,95.70
2019-02-26T02:52:33.145Z,95.90
2019-02-26T02:55:06.888Z,96.20
2019-02-26T02:57:39.849Z,96.20
2019-02-26T03:00:14.583Z,96.50
2019-02-26T03:02:49.742Z,96.60
2019-02-26T03:05:20.752Z,96.40
2019-02-26T03:07:54.034Z,96.70
2019-02-26T03:10:28.444Z,96.70
2019-02-26T03:13:00.328Z,96.60
2019-02-26T03:15:33.742Z,97.10
2019-02-26T03:18:06.601Z,96.90
2019-02-26T03:20:40.216Z,96.70
2019-02-26T03:23:15.767Z,96.40
2019-02-26T03:25:47.198Z,96.40
2019-02-26T03:28:18.247Z,96.30
2019-02-26T03:30:49.520Z,96.60
2019-02-26T03:33:20.849Z,97.00
2019-02-26T03:35:52.265Z,96.90
2019-02-26T03:38:26.133Z,96.50
2019-02-26T03:40:59.088Z,97.00
2019-02-26T03:43:31.521Z,96.80
2019-02-26T03:46:02.665Z,96.70
2019-02-26T03:48:34.081Z,96.40
2019-02-26T03:51:05.520Z,96.50
2019-02-26T03:53:39.030Z,96.60
2019-02-26T03:56:12.541Z,97.00
2019-02-26T03:58:43.531Z,96.80
2019-02-26T04:01:18.322Z,96.90
2019-02-26T04:03:49.161Z,97.30
2019-02-26T04:06:21.516Z,97.30
2019-02-26T04:08:55.339Z,97.20
2019-02-26T04:11:27.763Z,97.10
2019-02-26T04:14:00.024Z,96.90
2019-02-26T04:16:32.463Z,96.70
2019-02-26T04:19:05.855Z,96.90
2019-02-26T04:22:33.312Z,96.60
2019-02-26T04:25:33.925Z,96.70
2019-02-26T04:28:30.658Z,96.60
2019-02-26T04:31:05.672Z,96.50
2019-02-26T04:34:08.432Z,96.80
2019-02-26T04:37:04.657Z,96.70
2019-02-26T04:39:44.374Z,96.70
2019-02-26T04:42:40.992Z,96.80
2019-02-26T04:45:32.302Z,97.20
2019-02-26T04:48:17.140Z,97.50
2019-02-26T04:50:47.222Z,97.40
2019-02-26T04:53:18.616Z,97.60
2019-02-26T04:55:49.977Z,97.80
2019-02-26T04:58:22.681Z,98.20
2019-02-26T05:00:54.271Z,97.60
2019-02-26T05:03:25.627Z,98.30
2019-02-26T05:05:59.535Z,98.50
2019-02-26T05:08:32.162Z,98.00
2019-02-26T05:11:02.960Z,98.40
2019-02-26T05:13:34.669Z,97.80
2019-02-26T05:16:06.180Z,97.90
2019-02-26T05:18:37.517Z,97.90
2019-02-26T05:21:10.851Z,97.80
2019-02-26T05:23:41.936Z,97.90
2019-02-26T05:26:15.105Z,98.20
2019-02-26T05:28:49.677Z,98.30
2019-02-26T05:31:21.466Z,98.20
2019-02-26T05:33:55.340Z,97.80
2019-02-26T05:36:28.139Z,97.60
2019-02-26T05:39:00.349Z,97.60
2019-02-26T05:41:33.651Z,97.50
2019-02-26T05:44:08.353Z,97.50
2019-02-26T05:46:38.210Z,97.30
2019-02-26T05:49:13.259Z,97.40
2019-02-26T05:51:42.812Z,97.70
2019-02-26T05:54:17.455Z,98.00
2019-02-26T05:56:49.802Z,97.90
2019-02-26T05:59:21.804Z,97.60
2019-02-26T06:01:55.894Z,97.90
2019-02-26T06:04:27.383Z,98.60
2019-02-26T06:06:59.893Z,98.70
2019-02-26T06:09:33.815Z,98.70
2019-02-26T06:12:04.913Z,98.10
2019-02-26T06:14:39.172Z,97.90
2019-02-26T06:17:10.509Z,98.20
2019-02-26T06:19:52.390Z,98.50
2019-02-26T06:22:26.487Z,98.40
2019-02-26T06:24:59.555Z,98.50
2019-02-26T06:27:29.724Z,98.50
2019-02-26T06:30:05.906Z,98.40
2019-02-26T06:32:37.065Z,98.50
2019-02-26T06:35:16.271Z,98.70
2019-02-26T06:37:47.312Z,98.50
2019-02-26T06:40:18.926Z,98.60
2019-02-26T06:42:50.359Z,98.60
2019-02-26T06:45:21.656Z,98.70
2019-02-26T06:47:54.599Z,98.60
2019-02-26T06:50:26.033Z,98.80
2019-02-26T06:52:57.309Z,98.60
2019-02-26T06:55:28.568Z,98.80
2019-02-26T06:58:21.569Z,99.10
2019-02-26T07:00:55.341Z,98.90
2019-02-26T07:03:26.121Z,98.80
2019-02-26T07:05:59.683Z,98.70
2019-02-26T07:08:31.026Z,98.70
2019-02-26T07:11:04.004Z,98.60
2019-02-26T07:13:38.590Z,98.80
2019-02-26T07:16:09.714Z,98.80
2019-02-26T07:18:41.096Z,98.50
2019-02-26T07:21:12.396Z,98.50
2019-02-26T07:23:43.718Z,98.50
2019-02-26T07:26:16.072Z,98.60
2019-02-26T07:28:48.741Z,98.60
2019-02-26T07:31:21.113Z,98.60
2019-02-26T07:33:55.759Z,98.60
2019-02-26T07:36:28.146Z,98.60
2019-02-26T07:38:59.646Z,98.50
2019-02-26T07:41:30.972Z,98.50
2019-02-26T07:44:02.405Z,98.40
2019-02-26T07:46:35.571Z,98.30
2019-02-26T07:49:07.487Z,98.30
2019-02-26T07:51:40.550Z,98.30
2019-02-26T07:54:12.042Z,98.50
2019-02-26T07:56:43.334Z,98.60
2019-02-26T07:59:15.949Z,98.60
2019-02-26T08:01:49.558Z,98.70
2019-02-26T08:04:20.393Z,98.70
2019-02-26T08:06:54.998Z,98.70
2019-02-26T08:09:25.185Z,98.60
2019-02-26T08:11:56.541Z,98.30
2019-02-26T08:14:27.843Z,98.30
2019-02-26T08:17:01.306Z,98.10
2019-02-26T08:19:34.430Z,98.30
2019-02-26T08:22:05.294Z,97.50
2019-02-26T08:24:36.695Z,97.30
2019-02-26T08:27:08.535Z,97.30
2019-02-26T08:29:40.787Z,96.90
2019-02-26T08:32:15.890Z,96.80
2019-02-26T08:34:45.061Z,96.70
2019-02-26T08:37:16.580Z,96.60
2019-02-26T08:39:47.839Z,96.50
2019-02-26T08:42:19.174Z,96.40
2019-02-26T08:44:51.220Z,96.30
2019-02-26T08:47:23.669Z,96.40
2019-02-26T08:49:54.995Z,96.40
2019-02-26T08:52:27.585Z,96.10
2019-02-26T08:54:59.389Z,95.90
2019-02-26T08:57:30.720Z,95.80
2019-02-26T09:00:02.133Z,95.70
2019-02-26T09:02:34.035Z,95.40
2019-02-26T09:05:09.344Z,95.60
2019-02-26T09:07:42.702Z,95.30
2019-02-26T09:10:22.642Z,95.20
2019-02-26T09:12:52.243Z,95.00
2019-02-26T09:15:23.955Z,94.70
2019-02-26T09:17:55.246Z,94.50
2019-02-26T09:20:26.928Z,94.50
2019-02-26T09:22:59.537Z,94.30
2019-02-26T09:25:33.974Z,94.30
2019-02-26T09:28:05.597Z,93.30
2019-02-26T09:30:38.862Z,93.20
2019-02-26T09:33:11.079Z,92.90
2019-02-26T09:35:42.542Z,92.40
2019-02-26T09:38:15.141Z,91.70
2019-02-26T09:40:48.226Z,91.40
2019-02-26T09:43:22.036Z,91.00
2019-02-26T09:45:53.210Z,91.20
2019-02-26T09:48:24.554Z,90.60
2019-02-26T09:50:55.958Z,91.00
2019-02-26T09:53:27.282Z,90.60
2019-02-26T09:55:58.685Z,90.30
2019-02-26T09:58:30.019Z,90.10
2019-02-26T10:01:01.294Z,90.00
2019-02-26T10:03:36.747Z,89.80
2019-02-26T10:06:05.849Z,88.60
2019-02-26T10:08:37.179Z,87.50
2019-02-26T10:11:08.518Z,86.60
2019-02-26T10:13:41.922Z,86.80
2019-02-26T10:16:12.941Z,87.00
2019-02-26T10:18:45.024Z,86.80
2019-02-26T10:21:19.848Z,86.40
2019-02-26T10:23:52.133Z,86.50
2019-02-26T10:26:26.110Z,85.00
2019-02-26T10:29:03.443Z,84.80
2019-02-26T10:31:29.945Z,85.40
2019-02-26T10:34:03.070Z,84.60
2019-02-26T10:36:36.392Z,84.20
2019-02-26T10:39:08.577Z,84.20
2019-02-26T10:41:42.327Z,83.60
2019-02-26T10:44:14.814Z,83.60
2019-02-26T10:46:46.337Z,83.80
2019-02-26T10:49:17.677Z,84.80
2019-02-26T10:51:49.154Z,82.60
2019-02-26T10:54:20.434Z,81.70
2019-02-26T10:56:51.763Z,80.50
2019-02-26T10:59:23.601Z,80.50
2019-02-26T11:01:57.261Z,82.70
2019-02-26T11:04:34.700Z,79.80
2019-02-26T11:07:08.454Z,82.20
2019-02-26T11:09:37.327Z,78.70
2019-02-26T11:12:08.766Z,79.60
2019-02-26T11:14:41.962Z,76.50
2019-02-26T11:17:15.819Z,77.90
2019-02-26T11:19:47.967Z,78.20
2019-02-26T11:22:21.355Z,78.90
2019-02-26T11:24:53.484Z,77.70
2019-02-26T11:27:25.526Z,75.60
2019-02-26T11:29:57.802Z,76.40
2019-02-26T11:32:30.628Z,76.00
2019-02-26T11:35:03.138Z,78.00
2019-02-26T11:37:34.406Z,75.60
2019-02-26T11:40:12.872Z,78.90
2019-02-26T11:42:46.259Z,75.30
2019-02-26T11:45:23.275Z,77.10
2019-02-26T11:47:55.805Z,74.80
2019-02-26T11:50:28.528Z,74.00
2019-02-26T11:53:00.665Z,73.90
2019-02-26T11:55:34.352Z,72.70
2019-02-26T11:58:07.726Z,74.50
2019-02-26T12:00:52.273Z,71.80
2019-02-26T12:03:27.252Z,70.60
2019-02-26T12:05:59.096Z,71.30
2019-02-26T12:08:29.848Z,69.30
2019-02-26T12:11:04.054Z,72.30
2019-02-26T12:13:34.472Z,69.00
2019-02-26T12:16:06.008Z,67.50
2019-02-26T12:18:39.127Z,69.60
2019-02-26T12:21:12.899Z,66.80
2019-02-26T12:23:46.648Z,66.20
2019-02-26T12:26:19.317Z,66.70
2019-02-26T12:28:52.376Z,64.50
2019-02-26T12:31:25.271Z,62.80
2019-02-26T12:33:56.991Z,69.10
2019-02-26T12:36:29.846Z,64.90
2019-02-26T12:39:02.439Z,65.60
2019-02-26T12:41:36.569Z,64.60
2019-02-26T12:44:12.968Z,62.90
2019-02-26T12:46:41.738Z,63.80
2019-02-26T12:49:16.025Z,64.00
2019-02-26T12:51:47.606Z,61.70
2019-02-26T12:54:19.291Z,59.60
2019-02-26T12:56:52.324Z,58.20
2019-02-26T12:59:23.670Z,58.90
2019-02-26T13:01:55.151Z,57.40
2019-02-26T13:04:26.435Z,60.60
2019-02-26T13:06:57.931Z,58.30
2019-02-26T13:09:29.266Z,59.90
2019-02-26T13:12:02.784Z,58.90
2019-02-26T13:14:33.735Z,55.20
2019-02-26T13:17:06.291Z,55.50
2019-02-26T13:19:37.627Z,58.50
2019-02-26T13:22:12.846Z,55.70
2019-02-26T13:24:42.092Z,58.20
2019-02-26T13:27:13.549Z,54.20
2019-02-26T13:29:53.670Z,56.20
2019-02-26T13:32:21.042Z,57.10
2019-02-26T13:34:52.522Z,53.90
2019-02-26T13:37:26.397Z,55.70
2019-02-26T13:39:57.163Z,55.50
2019-02-26T13:42:28.717Z,54.00
2019-02-26T13:45:00.177Z,53.70
2019-02-26T13:47:31.649Z,53.40
2019-02-26T13:50:03.064Z,52.80
2019-02-26T13:52:35.699Z,54.70
2019-02-26T13:55:10.551Z,54.60
2019-02-26T13:57:41.997Z,54.90
2019-02-26T14:00:15.496Z,52.40
2019-02-26T14:02:47.101Z,54.00
2019-02-26T14:05:26.733Z,49.50
2019-02-26T14:07:58.284Z,54.90
2019-02-26T14:10:29.612Z,53.50
2019-02-26T14:13:01.026Z,53.70
2019-02-26T14:15:32.807Z,51.20
2019-02-26T14:18:04.479Z,52.30
2019-02-26T14:20:35.790Z,50.40
2019-02-26T14:23:07.235Z,53.10
2019-02-26T14:25:38.580Z,49.40
2019-02-26T14:28:10.062Z,50.60
2019-02-26T14:30:41.466Z,48.50
2019-02-26T14:33:12.856Z,49.60
2019-02-26T14:35:44.168Z,50.30
2019-02-26T14:38:15.561Z,48.50
2019-02-26T14:40:46.987Z,49.10
2019-02-26T14:43:18.438Z,48.40
2019-02-26T14:45:49.708Z,49.60
2019-02-26T14:48:21.099Z,47.70
2019-02-26T14:50:52.511Z,51.00
2019-02-26T14:53:23.910Z,51.30
2019-02-26T14:55:55.253Z,48.50
2019-02-26T14:58:26.664Z,51.30
2019-02-26T15:01:00.270Z,49.50
2019-02-26T15:03:32.710Z,52.10
2019-02-26T15:06:03.985Z,49.10
2019-02-26T15:08:36.646Z,50.40
2019-02-26T15:11:08.003Z,51.00
2019-02-26T15:13:39.327Z,47.90
2019-02-26T15:16:10.675Z,49.60
2019-02-26T15:18:41.967Z,49.90
2019-02-26T15:21:13.321Z,48.20
2019-02-26T15:23:44.738Z,47.60
2019-02-26T15:26:16.218Z,48.40
2019-02-26T15:28:49.028Z,49.00
2019-02-26T15:31:20.606Z,47.50
2019-02-26T15:33:52.001Z,49.50
2019-02-26T15:36:24.499Z,47.00
2019-02-26T15:38:55.783Z,48.60
2019-02-26T15:41:27.207Z,48.50
2019-02-26T15:43:58.493Z,49.60
2019-02-26T15:46:30.891Z,48.20
2019-02-26T15:49:02.899Z,47.40
2019-02-26T15:51:34.309Z,49.50
2019-02-26T15:54:05.679Z,48.30
2019-02-26T15:56:37.107Z,49.30
2019-02-26T15:59:08.694Z,48.00
2019-02-26T16:01:40.298Z,47.80
2019-02-26T16:04:11.901Z,48.90
2019-02-26T16:06:43.320Z,49.00
2019-02-26T16:09:15.493Z,48.70
2019-02-26T16:11:47.060Z,49.00
2019-02-26T16:14:18.477Z,49.40
2019-02-26T16:16:49.848Z,50.00
2019-02-26T16:19:21.376Z,50.70
2019-02-26T16:21:52.796Z,51.80
2019-02-26T16:24:24.092Z,50.80
2019-02-26T16:27:07.089Z,51.80
2019-02-26T16:29:38.927Z,51.50
2019-02-26T16:32:10.363Z,51.00
2019-02-26T16:34:43.222Z,52.10
2019-02-26T16:37:14.714Z,52.60
2019-02-26T16:39:46.197Z,53.30
2019-02-26T16:42:17.649Z,53.30
2019-02-26T16:44:49.057Z,54.00
2019-02-26T16:47:20.424Z,54.20
2019-02-26T16:49:52.043Z,55.00
2019-02-26T16:52:27.358Z,55.30
2019-02-26T16:54:56.532Z,55.50
2019-02-26T16:57:28.260Z,55.60
2019-02-26T17:00:00.544Z,56.60
2019-02-26T17:02:33.487Z,56.80
2019-02-26T17:05:07.481Z,57.20
2019-02-26T17:07:39.042Z,57.60
2019-02-26T17:10:17.721Z,58.20
2019-02-26T17:12:56.130Z,58.70
2019-02-26T17:15:35.242Z,60.20
2019-02-26T17:18:09.597Z,60.00
2019-02-26T17:20:40.248Z,60.80
2019-02-26T17:23:14.020Z,62.10
2019-02-26T17:25:45.946Z,62.80
2019-02-26T17:28:17.472Z,64.40
2019-02-26T17:30:48.776Z,65.20
2019-02-26T17:33:20.255Z,65.30
2019-02-26T17:35:52.949Z,65.60
2019-02-26T17:38:26.008Z,66.50
2019-02-26T17:40:57.627Z,66.40
2019-02-26T17:43:29.157Z,67.30
2019-02-26T17:46:02.454Z,68.40
2019-02-26T17:48:43.291Z,67.90
2019-02-26T17:51:07.323Z,68.00
2019-02-26T17:53:40.714Z,68.30
2019-02-26T17:56:12.292Z,68.90
2019-02-26T17:58:45.494Z,69.30
2019-02-26T18:01:16.991Z,70.00
2019-02-26T18:03:52.789Z,70.20
2019-02-26T18:06:36.433Z,70.20
2019-02-26T18:09:21.555Z,70.50
2019-02-26T18:11:55.010Z,71.20
2019-02-26T18:14:47.307Z,71.40
2019-02-26T18:17:26.670Z,71.30
2019-02-26T18:20:08.899Z,72.60
2019-02-26T18:22:43.472Z,72.40
2019-02-26T18:25:22.985Z,72.70
2019-02-26T18:28:08.858Z,72.60
2019-02-26T18:30:40.133Z,74.10
2019-02-26T18:33:11.702Z,73.00
2019-02-26T18:35:43.321Z,73.40
2019-02-26T18:38:14.936Z,73.60
2019-02-26T18:40:46.438Z,74.00
2019-02-26T18:43:19.027Z,73.90
2019-02-26T18:45:50.684Z,74.20
2019-02-26T18:48:22.220Z,74.80
2019-02-26T18:50:53.658Z,74.90
2019-02-26T18:53:25.008Z,75.80
2019-02-26T18:55:56.388Z,76.40
2019-02-26T18:58:27.928Z,76.60
2019-02-26T19:00:59.610Z,77.80
2019-02-26T19:03:31.170Z,78.10
2019-02-26T19:06:03.645Z,77.60
2019-02-26T19:08:39.180Z,77.80
2019-02-26T19:11:09.023Z,77.60
2019-02-26T19:13:41.553Z,77.70
2019-02-26T19:16:13.027Z,77.30
2019-02-26T19:18:44.687Z,76.70
2019-02-26T19:21:16.884Z,77.10
2019-02-26T19:23:48.540Z,77.20
2019-02-26T19:26:20.155Z,77.00
2019-02-26T19:28:51.495Z,78.00
2019-02-26T19:31:23.597Z,80.30
2019-02-26T19:33:56.228Z,80.70
2019-02-26T19:36:27.787Z,81.80
2019-02-26T19:39:00.963Z,82.60
2019-02-26T19:41:34.053Z,83.50
2019-02-26T19:44:05.700Z,84.20
2019-02-26T19:46:37.227Z,84.20
2019-02-26T19:49:08.906Z,84.90
2019-02-26T19:51:40.975Z,85.00
2019-02-26T19:54:12.572Z,84.90
2019-02-26T19:56:44.258Z,84.20
2019-02-26T19:59:15.816Z,84.70
2019-02-26T20:01:47.497Z,84.90
2019-02-26T20:04:19.076Z,84.90
2019-02-26T20:06:50.688Z,84.80
2019-02-26T20:09:23.007Z,85.30
2019-02-26T20:11:56.244Z,87.00
2019-02-26T20:14:28.134Z,87.80
2019-02-26T20:17:04.957Z,88.60
2019-02-26T20:19:34.017Z,88.60
2019-02-26T20:22:05.398Z,89.50
2019-02-26T20:24:37.870Z,89.10
2019-02-26T20:27:12.021Z,89.50
2019-02-26T20:29:43.459Z,89.10
2019-02-26T20:32:16.139Z,89.50
2019-02-26T20:34:47.568Z,89.30
2019-02-26T20:37:18.902Z,88.90
2019-02-26T20:39:50.223Z,89.30
2019-02-26T20:42:23.641Z,90.30
2019-02-26T20:44:58.932Z,90.40
2019-02-26T20:47:31.644Z,90.70
2019-02-26T20:50:02.659Z,90.30
2019-02-26T20:52:34.796Z,90.40
2019-02-26T20:55:25.331Z,90.60
2019-02-26T20:57:57.801Z,90.70
2019-02-26T21:00:32.342Z,90.80
2019-02-26T21:03:03.791Z,90.90
2019-02-26T21:05:35.625Z,90.80
2019-02-26T21:08:07.056Z,90.90
2019-02-26T21:10:38.669Z,90.80
2019-02-26T21:13:10.073Z,91.00
2019-02-26T21:15:41.813Z,91.00
2019-02-26T21:18:13.284Z,91.10
2019-02-26T21:20:47.001Z,91.20
2019-02-26T21:23:18.224Z,91.40
2019-02-26T21:25:49.926Z,91.50
2019-02-26T21:28:24.260Z,91.70
2019-02-26T21:30:55.823Z,91.80
2019-02-26T21:33:30.616Z,91.90
2019-02-26T21:36:00.277Z,92.00
2019-02-26T21:38:31.521Z,92.00
2019-02-26T21:41:02.914Z,92.30
2019-02-26T21:43:35.448Z,92.40
2019-02-26T21:46:06.985Z,92.40
2019-02-26T21:48:38.466Z,92.60
2019-02-26T21:51:10.003Z,92.60
2019-02-26T21:53:41.432Z,92.70
2019-02-26T21:56:15.448Z,92.90
2019-02-26T21:58:45.809Z,92.90
2019-02-26T22:01:17.224Z,92.90
2019-02-26T22:03:48.796Z,93.10
2019-02-26T22:06:20.290Z,93.10
2019-02-26T22:08:51.741Z,93.10
2019-02-26T22:11:23.015Z,93.10
2019-02-26T22:13:54.582Z,93.10
2019-02-26T22:16:26.077Z,93.10
2019-02-26T22:18:58.271Z,93.20
2019-02-26T22:21:31.326Z,93.30
2019-02-26T22:24:04.647Z,93.30
2019-02-26T22:26:35.848Z,93.50
2019-02-26T22:29:09.327Z,93.40
2019-02-26T22:31:40.667Z,93.70
2019-02-26T22:34:12.034Z,93.70
2019-02-26T22:36:43.298Z,93.60
2019-02-26T22:39:15.066Z,93.90
2019-02-26T22:41:46.492Z,93.80
2019-02-26T22:44:18.645Z,93.80
2019-02-26T22:46:51.012Z,93.90
2019-02-26T22:49:22.553Z,94.00
2019-02-26T22:51:53.898Z,94.10
2019-02-26T22:54:25.205Z,94.00
2019-02-26T22:56:56.969Z,93.90
2019-02-26T22:59:28.854Z,94.00
2019-02-26T23:02:00.431Z,94.00
2019-02-26T23:04:35.017Z,94.10
2019-02-26T23:07:06.412Z,94.30
2019-02-26T23:09:38.789Z,94.40
2019-02-26T23:12:11.770Z,94.80
2019-02-26T23:14:44.504Z,94.60
2019-02-26T23:17:15.972Z,94.60
2019-02-26T23:19:47.331Z,94.60
2019-02-26T23:22:20.935Z,94.70
2019-02-26T23:24:53.415Z,94.60
2019-02-26T23:27:24.812Z,94.60
2019-02-26T23:29:56.536Z,94.60
2019-02-26T23:32:28.617Z,94.80
2019-02-26T23:35:14.766Z,95.10
2019-02-26T23:37:46.243Z,95.20
2019-02-26T23:40:18.588Z,95.10
2019-02-26T23:42:50.205Z,95.00
2019-02-26T23:45:23.974Z,94.90
2019-02-26T23:47:54.784Z,95.00
2019-02-26T23:50:26.192Z,95.10
2019-02-26T23:53:00.780Z,95.10
2019-02-26T23:55:30.941Z,95.10
2019-02-26T23:58:02.320Z,95.20
